createdAt,value
2017-12-28T00:00:28.752Z,95.60
2017-12-28T00:02:56.915Z,95.60
2017-12-28T00:05:25.005Z,95.60
2017-12-28T00:07:52.477Z,95.80
2017-12-28T00:10:19.995Z,95.50
2017-12-28T00:12:47.500Z,95.30
2017-12-28T00:15:14.972Z,95.40
2017-12-28T00:17:42.459Z,95.50
2017-12-28T00:20:09.954Z,94.70
2017-12-28T00:22:38.148Z,95.10
2017-12-28T00:25:05.608Z,95.10
2017-12-28T00:27:33.118Z,95.00
2017-12-28T00:30:01.389Z,95.40
2017-12-28T00:32:28.830Z,95.30
2017-12-28T00:34:56.333Z,95.10
2017-12-28T00:37:24.581Z,95.00
2017-12-28T00:39:52.033Z,95.00
2017-12-28T00:42:19.664Z,94.70
2017-12-28T00:44:47.874Z,95.60
2017-12-28T00:47:15.325Z,95.60
2017-12-28T00:49:42.813Z,95.30
2017-12-28T00:52:10.285Z,94.60
2017-12-28T00:54:37.742Z,95.00
2017-12-28T00:57:05.251Z,94.50
2017-12-28T00:59:32.771Z,95.20
2017-12-28T01:02:01.053Z,94.50
2017-12-28T01:04:28.607Z,94.50
2017-12-28T01:06:56.016Z,94.60
2017-12-28T01:09:23.484Z,94.90
2017-12-28T01:11:50.972Z,94.80
2017-12-28T01:14:18.461Z,94.60
2017-12-28T01:16:45.952Z,94.50
2017-12-28T01:19:14.229Z,94.50
2017-12-28T01:21:42.481Z,94.30
2017-12-28T01:24:10.002Z,94.30
2017-12-28T01:26:38.217Z,94.40
2017-12-28T01:29:07.482Z,94.90
2017-12-28T01:31:34.939Z,94.60
2017-12-28T01:34:02.401Z,94.70
2017-12-28T01:36:29.897Z,94.40
2017-12-28T01:38:57.383Z,94.40
2017-12-28T01:41:24.915Z,94.40
2017-12-28T01:43:52.372Z,94.40
2017-12-28T01:46:19.862Z,94.40
2017-12-28T01:48:47.368Z,94.60
2017-12-28T01:51:14.876Z,94.50
2017-12-28T01:53:42.364Z,94.50
2017-12-28T01:56:09.850Z,94.40
2017-12-28T01:58:37.585Z,94.40
2017-12-28T02:01:05.002Z,94.30
2017-12-28T02:03:32.455Z,94.70
2017-12-28T02:05:59.956Z,94.30
2017-12-28T02:08:27.450Z,94.40
2017-12-28T02:10:54.943Z,94.10
2017-12-28T02:13:22.405Z,94.00
2017-12-28T02:15:49.923Z,94.40
2017-12-28T02:18:17.411Z,94.50
2017-12-28T02:20:45.638Z,94.10
2017-12-28T02:23:13.129Z,94.10
2017-12-28T02:25:41.401Z,94.10
2017-12-28T02:28:08.948Z,94.10
2017-12-28T02:30:36.406Z,94.00
2017-12-28T02:33:03.908Z,94.00
2017-12-28T02:35:31.391Z,94.00
2017-12-28T02:37:59.602Z,94.50
2017-12-28T02:40:27.065Z,94.50
2017-12-28T02:42:54.513Z,94.80
2017-12-28T02:45:22.104Z,94.90
2017-12-28T02:47:49.520Z,95.00
2017-12-28T02:50:17.749Z,94.50
2017-12-28T02:52:45.298Z,94.50
2017-12-28T02:55:12.755Z,95.30
2017-12-28T02:57:40.256Z,95.00
2017-12-28T03:00:07.721Z,95.30
2017-12-28T03:02:35.255Z,95.10
2017-12-28T03:05:02.753Z,95.40
2017-12-28T03:07:30.207Z,94.80
2017-12-28T03:09:57.748Z,94.60
2017-12-28T03:12:25.232Z,94.40
2017-12-28T03:14:52.682Z,94.70
2017-12-28T03:17:20.180Z,95.20
2017-12-28T03:19:47.668Z,95.60
2017-12-28T03:22:15.884Z,96.00
2017-12-28T03:24:43.396Z,96.00
2017-12-28T03:27:11.639Z,96.10
2017-12-28T03:29:39.094Z,96.10
2017-12-28T03:32:06.586Z,96.20
2017-12-28T03:34:33.995Z,95.90
2017-12-28T03:37:01.503Z,95.80
2017-12-28T03:39:28.970Z,95.60
2017-12-28T03:41:56.424Z,95.90
2017-12-28T03:44:23.873Z,96.10
2017-12-28T03:46:51.381Z,95.70
2017-12-28T03:49:18.823Z,96.10
2017-12-28T03:51:47.067Z,96.00
2017-12-28T03:54:14.559Z,96.00
2017-12-28T03:56:42.054Z,96.50
2017-12-28T03:59:09.514Z,96.30
2017-12-28T04:01:36.997Z,96.60
2017-12-28T04:04:04.739Z,96.10
2017-12-28T04:06:33.004Z,96.00
2017-12-28T04:09:00.503Z,96.00
2017-12-28T04:11:27.945Z,95.80
2017-12-28T04:13:56.191Z,96.00
2017-12-28T04:16:23.634Z,96.00
2017-12-28T04:18:51.138Z,96.20
2017-12-28T04:21:19.410Z,96.40
2017-12-28T04:23:46.895Z,96.70
2017-12-28T04:26:15.124Z,96.50
2017-12-28T04:28:42.576Z,96.10
2017-12-28T04:31:10.835Z,96.00
2017-12-28T04:33:38.297Z,96.00
2017-12-28T04:36:05.782Z,96.30
2017-12-28T04:38:33.286Z,96.70
2017-12-28T04:41:00.749Z,97.00
2017-12-28T04:43:28.992Z,96.60
2017-12-28T04:45:56.497Z,96.60
2017-12-28T04:48:24.722Z,96.70
2017-12-28T04:50:52.219Z,96.70
2017-12-28T04:53:19.660Z,96.50
2017-12-28T04:55:47.145Z,96.70
2017-12-28T04:58:14.598Z,96.00
2017-12-28T05:00:42.883Z,96.00
2017-12-28T05:03:10.335Z,96.20
2017-12-28T05:05:37.803Z,96.10
2017-12-28T05:08:05.254Z,96.00
2017-12-28T05:10:32.755Z,96.00
2017-12-28T05:13:00.151Z,96.20
2017-12-28T05:15:27.866Z,96.50
2017-12-28T05:17:56.008Z,97.40
2017-12-28T05:20:23.452Z,97.30
2017-12-28T05:22:50.970Z,97.20
2017-12-28T05:25:18.423Z,97.10
2017-12-28T05:27:45.925Z,97.20
2017-12-28T05:30:13.405Z,97.30
2017-12-28T05:32:40.903Z,97.00
2017-12-28T05:35:08.404Z,96.80
2017-12-28T05:37:36.703Z,96.80
2017-12-28T05:40:04.121Z,96.80
2017-12-28T05:42:31.581Z,96.60
2017-12-28T05:44:59.108Z,96.50
2017-12-28T05:47:26.560Z,96.00
2017-12-28T05:49:54.066Z,96.00
2017-12-28T05:52:21.534Z,96.10
2017-12-28T05:54:49.089Z,96.00
2017-12-28T05:57:16.564Z,96.30
2017-12-28T05:59:44.056Z,96.60
2017-12-28T06:02:12.333Z,96.10
2017-12-28T06:04:39.791Z,96.10
2017-12-28T06:07:07.290Z,96.00
2017-12-28T06:09:34.744Z,96.20
2017-12-28T06:12:02.200Z,96.20
2017-12-28T06:14:29.679Z,96.00
2017-12-28T06:16:57.120Z,96.30
2017-12-28T06:19:24.589Z,96.10
2017-12-28T06:21:52.084Z,96.20
2017-12-28T06:24:19.544Z,96.00
2017-12-28T06:26:47.033Z,96.20
2017-12-28T06:29:14.529Z,96.20
2017-12-28T06:31:42.049Z,96.50
2017-12-28T06:34:09.553Z,96.50
2017-12-28T06:36:37.799Z,96.10
2017-12-28T06:39:05.348Z,96.10
2017-12-28T06:41:32.847Z,96.20
2017-12-28T06:44:00.286Z,96.00
2017-12-28T06:46:27.796Z,95.90
2017-12-28T06:48:55.288Z,95.70
2017-12-28T06:51:22.795Z,96.20
2017-12-28T06:53:50.266Z,96.00
2017-12-28T06:56:18.016Z,96.30
2017-12-28T06:58:45.484Z,95.90
2017-12-28T07:01:12.950Z,95.80
2017-12-28T07:03:40.430Z,95.90
2017-12-28T07:06:08.762Z,95.90
2017-12-28T07:08:36.232Z,95.90
2017-12-28T07:11:03.689Z,96.10
2017-12-28T07:13:31.190Z,96.40
2017-12-28T07:15:59.575Z,96.20
2017-12-28T07:18:27.022Z,95.90
2017-12-28T07:20:55.289Z,95.90
2017-12-28T07:23:22.776Z,95.90
2017-12-28T07:25:50.299Z,96.30
2017-12-28T07:28:17.718Z,96.20
2017-12-28T07:30:45.231Z,96.40
2017-12-28T07:33:12.702Z,96.40
2017-12-28T07:35:40.177Z,96.60
2017-12-28T07:38:07.839Z,96.20
2017-12-28T07:40:35.340Z,96.60
2017-12-28T07:43:02.812Z,96.30
2017-12-28T07:45:30.317Z,96.00
2017-12-28T07:47:57.791Z,96.00
2017-12-28T07:50:25.225Z,95.90
2017-12-28T07:52:52.753Z,95.90
2017-12-28T07:55:20.204Z,95.80
2017-12-28T07:57:48.459Z,95.90
2017-12-28T08:00:15.926Z,95.80
2017-12-28T08:02:43.434Z,96.10
2017-12-28T08:05:10.947Z,95.90
2017-12-28T08:07:38.452Z,95.90
2017-12-28T08:10:05.898Z,95.90
2017-12-28T08:12:33.388Z,96.00
2017-12-28T08:15:00.900Z,96.00
2017-12-28T08:17:28.340Z,95.90
2017-12-28T08:19:55.850Z,95.70
2017-12-28T08:22:23.286Z,95.90
2017-12-28T08:24:50.761Z,95.60
2017-12-28T08:27:18.217Z,95.70
2017-12-28T08:29:45.695Z,95.80
2017-12-28T08:32:13.950Z,95.40
2017-12-28T08:34:41.391Z,95.20
2017-12-28T08:37:09.021Z,95.70
2017-12-28T08:39:36.592Z,95.20
2017-12-28T08:42:04.100Z,95.10
2017-12-28T08:44:31.592Z,95.10
2017-12-28T08:46:59.841Z,95.60
2017-12-28T08:49:27.612Z,95.60
2017-12-28T08:51:55.787Z,95.60
2017-12-28T08:54:23.258Z,95.60
2017-12-28T08:56:50.733Z,95.80
2017-12-28T08:59:18.194Z,95.40
2017-12-28T09:01:45.736Z,95.60
2017-12-28T09:04:13.474Z,95.40
2017-12-28T09:06:40.910Z,95.40
2017-12-28T09:09:08.421Z,95.60
2017-12-28T09:11:35.876Z,95.70
2017-12-28T09:14:03.397Z,95.90
2017-12-28T09:16:31.698Z,95.70
2017-12-28T09:18:59.163Z,95.70
2017-12-28T09:21:26.670Z,95.70
2017-12-28T09:23:54.159Z,95.90
2017-12-28T09:26:21.646Z,95.80
2017-12-28T09:28:49.120Z,95.80
2017-12-28T09:31:16.573Z,95.30
2017-12-28T09:33:44.029Z,95.00
2017-12-28T09:36:11.588Z,95.60
2017-12-28T09:38:39.044Z,95.20
2017-12-28T09:41:07.405Z,95.60
2017-12-28T09:43:34.937Z,95.60
2017-12-28T09:46:02.571Z,95.70
2017-12-28T09:48:30.061Z,95.60
2017-12-28T09:50:57.555Z,95.10
2017-12-28T09:53:25.018Z,95.00
2017-12-28T09:55:52.534Z,95.10
2017-12-28T09:58:19.989Z,95.00
2017-12-28T10:00:47.514Z,94.90
2017-12-28T10:03:14.980Z,94.40
2017-12-28T10:05:43.265Z,94.60
2017-12-28T10:08:10.706Z,94.60
2017-12-28T10:10:38.317Z,94.90
2017-12-28T10:13:05.951Z,94.20
2017-12-28T10:15:33.476Z,94.50
2017-12-28T10:18:01.210Z,94.20
2017-12-28T10:20:28.863Z,94.30
2017-12-28T10:22:57.074Z,94.30
2017-12-28T10:25:24.541Z,94.30
2017-12-28T10:27:52.045Z,94.20
2017-12-28T10:30:20.005Z,94.30
2017-12-28T10:32:48.167Z,93.90
2017-12-28T10:35:15.636Z,93.90
2017-12-28T10:37:43.143Z,94.00
2017-12-28T10:40:11.436Z,93.50
2017-12-28T10:42:39.652Z,93.50
2017-12-28T10:45:07.167Z,93.50
2017-12-28T10:47:35.453Z,93.50
2017-12-28T10:50:02.989Z,93.50
2017-12-28T10:52:30.473Z,93.30
2017-12-28T10:54:58.877Z,92.80
2017-12-28T10:57:26.597Z,92.80
2017-12-28T10:59:54.072Z,92.50
2017-12-28T11:02:21.529Z,92.50
2017-12-28T11:04:49.006Z,92.40
2017-12-28T11:07:16.497Z,92.30
2017-12-28T11:09:44.740Z,91.70
2017-12-28T11:12:12.195Z,91.70
2017-12-28T11:14:39.677Z,91.80
2017-12-28T11:17:07.956Z,91.60
2017-12-28T11:19:36.188Z,91.50
2017-12-28T11:22:03.653Z,91.50
2017-12-28T11:24:31.146Z,91.20
2017-12-28T11:26:58.725Z,91.10
2017-12-28T11:29:26.143Z,91.00
2017-12-28T11:31:53.648Z,91.10
2017-12-28T11:34:21.117Z,90.90
2017-12-28T11:36:49.377Z,90.80
2017-12-28T11:39:16.855Z,90.80
2017-12-28T11:41:44.312Z,91.10
2017-12-28T11:44:11.802Z,90.40
2017-12-28T11:46:40.015Z,90.10
2017-12-28T11:49:07.556Z,90.10
2017-12-28T11:51:35.037Z,89.40
2017-12-28T11:54:02.507Z,88.60
2017-12-28T11:56:29.979Z,87.60
2017-12-28T11:58:57.413Z,87.20
2017-12-28T12:01:24.976Z,86.00
2017-12-28T12:03:52.433Z,85.10
2017-12-28T12:06:19.905Z,85.30
2017-12-28T12:08:47.448Z,83.60
2017-12-28T12:11:15.662Z,83.70
2017-12-28T12:13:43.201Z,83.60
2017-12-28T12:16:10.701Z,82.20
2017-12-28T12:18:38.188Z,82.20
2017-12-28T12:21:05.680Z,80.90
2017-12-28T12:23:33.924Z,80.20
2017-12-28T12:26:01.385Z,80.90
2017-12-28T12:28:28.920Z,80.50
2017-12-28T12:30:56.370Z,81.00
2017-12-28T12:33:23.818Z,76.80
2017-12-28T12:35:51.298Z,76.70
2017-12-28T12:38:19.465Z,76.70
2017-12-28T12:40:46.966Z,75.90
2017-12-28T12:43:14.488Z,76.00
2017-12-28T12:45:42.792Z,74.90
2017-12-28T12:48:10.330Z,74.90
2017-12-28T12:50:38.002Z,74.60
2017-12-28T12:53:05.525Z,74.00
2017-12-28T12:55:32.972Z,73.50
2017-12-28T12:58:00.465Z,71.80
2017-12-28T13:00:28.703Z,71.80
2017-12-28T13:02:56.143Z,71.80
2017-12-28T13:05:23.660Z,70.80
2017-12-28T13:07:51.121Z,69.70
2017-12-28T13:10:18.577Z,68.80
2017-12-28T13:12:46.060Z,69.10
2017-12-28T13:15:14.413Z,69.20
2017-12-28T13:17:41.825Z,69.10
2017-12-28T13:20:09.297Z,68.30
2017-12-28T13:22:36.823Z,66.10
2017-12-28T13:25:05.118Z,65.00
2017-12-28T13:27:32.582Z,65.00
2017-12-28T13:30:00.809Z,64.40
2017-12-28T13:32:28.259Z,64.40
2017-12-28T13:34:55.730Z,64.60
2017-12-28T13:37:23.225Z,63.70
2017-12-28T13:39:50.729Z,62.50
2017-12-28T13:42:18.184Z,64.50
2017-12-28T13:44:45.858Z,64.60
2017-12-28T13:47:13.313Z,63.70
2017-12-28T13:49:40.778Z,63.30
2017-12-28T13:52:08.301Z,63.40
2017-12-28T13:54:35.864Z,63.50
2017-12-28T13:57:03.373Z,62.40
2017-12-28T13:59:30.826Z,62.90
2017-12-28T14:01:58.330Z,63.30
2017-12-28T14:04:25.778Z,62.50
2017-12-28T14:06:53.255Z,61.70
2017-12-28T14:09:20.769Z,62.30
2017-12-28T14:11:48.282Z,62.30
2017-12-28T14:14:15.710Z,62.80
2017-12-28T14:16:43.229Z,63.30
2017-12-28T14:19:10.702Z,64.00
2017-12-28T14:21:39.002Z,64.00
2017-12-28T14:24:07.258Z,63.60
2017-12-28T14:26:34.771Z,63.50
2017-12-28T14:29:02.214Z,64.00
2017-12-28T14:31:30.459Z,62.30
2017-12-28T14:33:57.976Z,62.20
2017-12-28T14:36:25.518Z,62.30
2017-12-28T14:38:53.781Z,62.40
2017-12-28T14:41:22.230Z,62.20
2017-12-28T14:43:49.719Z,62.30
2017-12-28T14:46:17.193Z,62.00
2017-12-28T14:48:45.354Z,62.50
2017-12-28T14:51:12.905Z,61.30
2017-12-28T14:53:40.336Z,62.20
2017-12-28T14:56:08.536Z,62.30
2017-12-28T14:58:36.058Z,62.30
2017-12-28T15:01:04.314Z,59.60
2017-12-28T15:03:32.669Z,59.60
2017-12-28T15:06:00.199Z,58.40
2017-12-28T15:08:27.763Z,58.60
2017-12-28T15:10:55.175Z,58.80
2017-12-28T15:13:22.717Z,58.70
2017-12-28T15:15:50.148Z,58.80
2017-12-28T15:18:17.606Z,59.20
2017-12-28T15:20:45.834Z,62.30
2017-12-28T15:23:13.334Z,62.20
2017-12-28T15:25:40.781Z,62.50
2017-12-28T15:28:08.336Z,62.80
2017-12-28T15:30:35.796Z,62.20
2017-12-28T15:33:03.261Z,63.00
2017-12-28T15:35:30.801Z,62.20
2017-12-28T15:37:59.876Z,60.90
2017-12-28T15:40:29.238Z,60.90
2017-12-28T15:42:56.690Z,59.60
2017-12-28T15:45:24.171Z,59.80
2017-12-28T15:47:51.624Z,58.10
2017-12-28T15:50:19.108Z,57.90
2017-12-28T15:52:48.126Z,58.40
2017-12-28T15:55:16.398Z,58.60
2017-12-28T15:57:43.875Z,58.60
2017-12-28T16:00:17.350Z,58.10
2017-12-28T16:02:44.844Z,57.40
2017-12-28T16:05:13.040Z,57.60
2017-12-28T16:07:40.584Z,57.50
2017-12-28T16:10:08.036Z,57.30
2017-12-28T16:12:36.576Z,58.30
2017-12-28T16:15:05.489Z,57.40
2017-12-28T16:17:32.971Z,57.40
2017-12-28T16:20:00.591Z,57.40
2017-12-28T16:22:28.019Z,58.10
2017-12-28T16:24:55.466Z,59.30
2017-12-28T16:27:23.149Z,57.90
2017-12-28T16:29:51.378Z,59.10
2017-12-28T16:32:18.819Z,59.00
2017-12-28T16:34:46.326Z,62.00
2017-12-28T16:37:13.787Z,59.50
2017-12-28T16:39:41.225Z,61.50
2017-12-28T16:42:08.759Z,61.70
2017-12-28T16:44:37.025Z,62.80
2017-12-28T16:47:05.234Z,63.30
2017-12-28T16:49:32.742Z,63.30
2017-12-28T16:52:00.248Z,63.60
2017-12-28T16:54:27.693Z,65.00
2017-12-28T16:56:55.950Z,64.40
2017-12-28T16:59:23.435Z,64.30
2017-12-28T17:01:50.932Z,65.10
2017-12-28T17:04:18.418Z,65.80
2017-12-28T17:06:45.877Z,66.10
2017-12-28T17:09:13.401Z,66.50
2017-12-28T17:11:41.725Z,67.10
2017-12-28T17:14:09.184Z,66.30
2017-12-28T17:16:36.677Z,66.50
2017-12-28T17:19:04.154Z,66.80
2017-12-28T17:21:32.423Z,67.60
2017-12-28T17:23:59.886Z,66.90
2017-12-28T17:26:27.415Z,67.00
2017-12-28T17:28:54.917Z,67.10
2017-12-28T17:31:22.370Z,66.90
2017-12-28T17:33:49.876Z,66.90
2017-12-28T17:36:17.352Z,67.50
2017-12-28T17:38:44.895Z,68.60
2017-12-28T17:41:12.413Z,69.20
2017-12-28T17:43:39.879Z,69.40
2017-12-28T17:46:07.419Z,69.90
2017-12-28T17:48:34.833Z,70.00
2017-12-28T17:51:03.075Z,72.50
2017-12-28T17:53:30.622Z,72.50
2017-12-28T17:55:58.173Z,73.50
2017-12-28T17:58:26.386Z,74.70
2017-12-28T18:00:53.842Z,74.30
2017-12-28T18:03:21.367Z,74.50
2017-12-28T18:05:48.855Z,74.90
2017-12-28T18:08:16.340Z,75.20
2017-12-28T18:10:43.835Z,76.30
2017-12-28T18:13:11.313Z,76.00
2017-12-28T18:15:38.778Z,76.10
2017-12-28T18:18:06.344Z,75.50
2017-12-28T18:20:33.809Z,75.70
2017-12-28T18:23:01.350Z,76.40
2017-12-28T18:25:28.762Z,76.70
2017-12-28T18:27:56.267Z,77.30
2017-12-28T18:30:23.742Z,77.80
2017-12-28T18:32:51.626Z,77.10
2017-12-28T18:35:19.721Z,77.30
2017-12-28T18:37:47.216Z,77.30
2017-12-28T18:40:14.695Z,78.30
2017-12-28T18:42:42.212Z,78.60
2017-12-28T18:45:09.706Z,79.00
2017-12-28T18:47:37.228Z,79.10
2017-12-28T18:50:04.684Z,78.30
2017-12-28T18:52:32.906Z,79.10
2017-12-28T18:55:00.363Z,79.10
2017-12-28T18:57:27.881Z,79.30
2017-12-28T18:59:56.220Z,79.50
2017-12-28T19:02:23.708Z,79.20
2017-12-28T19:04:51.164Z,79.70
2017-12-28T19:07:18.857Z,79.50
2017-12-28T19:09:46.380Z,80.20
2017-12-28T19:12:13.884Z,80.80
2017-12-28T19:14:41.406Z,80.50
2017-12-28T19:17:08.929Z,80.80
2017-12-28T19:19:36.445Z,81.40
2017-12-28T19:22:03.927Z,81.70
2017-12-28T19:24:31.425Z,81.50
2017-12-28T19:26:59.062Z,82.00
2017-12-28T19:29:26.528Z,83.40
2017-12-28T19:31:54.793Z,83.30
2017-12-28T19:34:22.308Z,83.30
2017-12-28T19:36:49.788Z,84.10
2017-12-28T19:39:17.266Z,84.10
2017-12-28T19:41:44.750Z,83.60
2017-12-28T19:44:12.195Z,83.60
2017-12-28T19:46:39.641Z,84.70
2017-12-28T19:49:07.966Z,84.50
2017-12-28T19:51:35.375Z,83.80
2017-12-28T19:54:03.308Z,83.10
2017-12-28T19:56:30.968Z,82.90
2017-12-28T19:58:59.201Z,84.20
2017-12-28T20:01:26.724Z,84.20
2017-12-28T20:03:54.180Z,84.80
2017-12-28T20:06:22.408Z,85.30
2017-12-28T20:08:49.907Z,85.20
2017-12-28T20:11:18.459Z,85.50
2017-12-28T20:13:45.950Z,85.40
2017-12-28T20:16:13.454Z,86.90
2017-12-28T20:18:40.964Z,87.00
2017-12-28T20:21:08.469Z,86.80
2017-12-28T20:23:35.960Z,88.30
2017-12-28T20:26:03.492Z,87.60
2017-12-28T20:28:31.753Z,88.10
2017-12-28T20:30:59.225Z,88.10
2017-12-28T20:33:26.707Z,88.20
2017-12-28T20:35:54.278Z,87.60
2017-12-28T20:38:21.827Z,88.00
2017-12-28T20:40:49.300Z,87.60
2017-12-28T20:43:16.791Z,87.80
2017-12-28T20:45:44.197Z,88.00
2017-12-28T20:48:11.741Z,87.80
2017-12-28T20:50:39.205Z,88.40
2017-12-28T20:53:06.711Z,87.00
2017-12-28T20:55:34.255Z,87.80
2017-12-28T20:58:01.728Z,87.30
2017-12-28T21:00:29.338Z,87.50
2017-12-28T21:02:57.516Z,86.60
2017-12-28T21:05:25.027Z,86.60
2017-12-28T21:07:52.564Z,87.30
2017-12-28T21:10:20.027Z,86.10
2017-12-28T21:12:47.537Z,86.80
2017-12-28T21:15:15.014Z,86.20
2017-12-28T21:17:42.479Z,87.30
2017-12-28T21:20:09.943Z,86.80
2017-12-28T21:22:37.436Z,86.80
2017-12-28T21:25:04.916Z,86.90
2017-12-28T21:27:33.202Z,86.40
2017-12-28T21:30:01.471Z,86.80
2017-12-28T21:32:28.913Z,86.80
2017-12-28T21:34:56.450Z,86.90
2017-12-28T21:37:23.929Z,86.60
2017-12-28T21:39:51.421Z,87.20
2017-12-28T21:42:18.925Z,87.40
2017-12-28T21:44:46.402Z,88.40
2017-12-28T21:47:13.924Z,88.60
2017-12-28T21:49:42.191Z,89.20
2017-12-28T21:52:09.647Z,89.00
2017-12-28T21:54:37.154Z,88.30
2017-12-28T21:57:04.615Z,87.40
2017-12-28T21:59:32.175Z,88.20
2017-12-28T22:01:59.624Z,87.60
2017-12-28T22:04:27.864Z,88.10
2017-12-28T22:06:55.378Z,88.00
2017-12-28T22:09:22.826Z,88.20
2017-12-28T22:11:50.292Z,88.10
2017-12-28T22:14:18.550Z,88.90
2017-12-28T22:16:46.026Z,88.90
2017-12-28T22:19:14.268Z,89.70
2017-12-28T22:21:41.777Z,89.00
2017-12-28T22:24:09.230Z,89.80
2017-12-28T22:26:36.692Z,88.50
2017-12-28T22:29:04.196Z,89.00
2017-12-28T22:31:31.661Z,88.00
2017-12-28T22:33:59.312Z,88.70
2017-12-28T22:36:28.698Z,88.30
2017-12-28T22:38:57.162Z,89.80
2017-12-28T22:41:24.627Z,89.60
2017-12-28T22:43:52.097Z,90.10
2017-12-28T22:46:20.655Z,90.10
2017-12-28T22:48:48.093Z,90.10
2017-12-28T22:51:15.629Z,90.10
2017-12-28T22:53:43.046Z,89.70
2017-12-28T22:56:10.512Z,89.60
2017-12-28T22:58:38.036Z,90.20
2017-12-28T23:01:05.497Z,90.70
2017-12-28T23:03:33.002Z,91.10
2017-12-28T23:06:01.260Z,91.40
2017-12-28T23:08:28.725Z,91.40
2017-12-28T23:10:56.240Z,91.20
2017-12-28T23:13:23.707Z,91.00
2017-12-28T23:15:51.194Z,91.20
2017-12-28T23:18:18.652Z,91.50
2017-12-28T23:20:46.323Z,91.50
2017-12-28T23:23:13.768Z,91.70
2017-12-28T23:25:41.245Z,91.70
2017-12-28T23:28:08.863Z,92.10
2017-12-28T23:30:36.327Z,92.50
2017-12-28T23:33:03.796Z,92.50
2017-12-28T23:35:32.089Z,92.60
2017-12-28T23:37:59.553Z,92.60
2017-12-28T23:40:27.776Z,92.20
2017-12-28T23:42:55.272Z,92.20
2017-12-28T23:45:22.788Z,92.40
2017-12-28T23:47:50.275Z,92.00
2017-12-28T23:50:17.747Z,92.30
2017-12-28T23:52:45.259Z,92.20
2017-12-28T23:55:12.724Z,91.90
2017-12-28T23:57:40.188Z,91.80
